sensor_id;sensor_type;location;lat;lon;timestamp;pressure;altitude;pressure_sealevel;temperature;humidity
77454;BME280;66538;53.150;18.160;2023-10-09T00:01:26;102153.89;;;4.08;72.12
77454;BME280;66538;53.150;18.160;2023-10-09T00:03:53;102148.61;;;4.10;72.29
77454;BME280;66538;53.150;18.160;2023-10-09T00:06:22;102146.48;;;4.12;72.77
77454;BME280;66538;53.150;18.160;2023-10-09T00:09:06;102140.34;;;4.15;71.78
77454;BME280;66538;53.150;18.160;2023-10-09T00:11:57;102134.57;;;4.15;71.93
77454;BME280;66538;53.150;18.160;2023-10-09T00:14:29;102132.12;;;4.14;71.97
77454;BME280;66538;53.150;18.160;2023-10-09T00:16:57;102125.38;;;4.14;71.87
77454;BME280;66538;53.150;18.160;2023-10-09T00:19:45;102124.76;;;4.13;72.24
77454;BME280;66538;53.150;18.160;2023-10-09T00:22:14;102132.08;;;4.14;72.09
77454;BME280;66538;53.150;18.160;2023-10-09T00:24:51;102126.69;;;4.12;71.97
77454;BME280;66538;53.150;18.160;2023-10-09T00:27:42;102114.27;;;4.11;72.27
77454;BME280;66538;53.150;18.160;2023-10-09T00:30:14;102103.24;;;4.12;72.01
77454;BME280;66538;53.150;18.160;2023-10-09T00:32:56;102096.99;;;4.12;72.32
77454;BME280;66538;53.150;18.160;2023-10-09T00:35:27;102094.10;;;4.12;72.91
77454;BME280;66538;53.150;18.160;2023-10-09T00:38:05;102074.55;;;4.12;72.45
77454;BME280;66538;53.150;18.160;2023-10-09T00:40:52;102084.80;;;4.12;72.53
77454;BME280;66538;53.150;18.160;2023-10-09T00:43:34;102103.73;;;4.11;72.43
77454;BME280;66538;53.150;18.160;2023-10-09T00:46:04;102103.45;;;4.08;72.37
77454;BME280;66538;53.150;18.160;2023-10-09T00:48:57;102095.73;;;4.05;72.34
77454;BME280;66538;53.150;18.160;2023-10-09T00:51:25;102099.54;;;4.03;72.69
77454;BME280;66538;53.150;18.160;2023-10-09T00:53:57;102103.11;;;4.02;72.72
77454;BME280;66538;53.150;18.160;2023-10-09T00:56:26;102101.13;;;4.02;72.72
77454;BME280;66538;53.150;18.160;2023-10-09T00:58:55;102095.70;;;4.01;72.82
77454;BME280;66538;53.150;18.160;2023-10-09T01:01:27;102083.14;;;3.98;72.35
77454;BME280;66538;53.150;18.160;2023-10-09T01:04:04;102082.79;;;3.96;72.45
77454;BME280;66538;53.150;18.160;2023-10-09T01:06:41;102080.60;;;3.93;72.45
77454;BME280;66538;53.150;18.160;2023-10-09T01:09:14;102083.17;;;3.90;72.73
77454;BME280;66538;53.150;18.160;2023-10-09T01:11:41;102081.27;;;3.89;72.53
77454;BME280;66538;53.150;18.160;2023-10-09T01:14:26;102078.71;;;3.84;73.12
77454;BME280;66538;53.150;18.160;2023-10-09T01:16:53;102078.80;;;3.85;72.99
77454;BME280;66538;53.150;18.160;2023-10-09T01:19:23;102077.42;;;3.83;73.28
77454;BME280;66538;53.150;18.160;2023-10-09T01:21:51;102070.03;;;3.80;73.63
77454;BME280;66538;53.150;18.160;2023-10-09T01:24:19;102066.09;;;3.79;73.37
77454;BME280;66538;53.150;18.160;2023-10-09T01:26:54;102058.46;;;3.77;73.57
77454;BME280;66538;53.150;18.160;2023-10-09T01:29:25;102062.15;;;3.76;73.52
77454;BME280;66538;53.150;18.160;2023-10-09T01:31:57;102064.77;;;3.74;73.43
77454;BME280;66538;53.150;18.160;2023-10-09T01:34:32;102074.06;;;3.71;73.56
77454;BME280;66538;53.150;18.160;2023-10-09T01:37:19;102080.78;;;3.69;73.55
77454;BME280;66538;53.150;18.160;2023-10-09T01:39:49;102083.79;;;3.68;73.66
77454;BME280;66538;53.150;18.160;2023-10-09T01:42:18;102083.42;;;3.68;73.63
77454;BME280;66538;53.150;18.160;2023-10-09T01:45:01;102071.94;;;3.68;73.93
77454;BME280;66538;53.150;18.160;2023-10-09T01:47:48;102065.41;;;3.69;73.63
77454;BME280;66538;53.150;18.160;2023-10-09T01:50:23;102062.42;;;3.67;73.66
77454;BME280;66538;53.150;18.160;2023-10-09T01:53:13;102068.83;;;3.67;73.87
77454;BME280;66538;53.150;18.160;2023-10-09T01:55:44;102067.85;;;3.65;73.72
77454;BME280;66538;53.150;18.160;2023-10-09T01:58:12;102070.26;;;3.66;73.66
77454;BME280;66538;53.150;18.160;2023-10-09T02:00:48;102066.73;;;3.66;74.07
77454;BME280;66538;53.150;18.160;2023-10-09T02:03:20;102065.08;;;3.64;73.81
77454;BME280;66538;53.150;18.160;2023-10-09T02:05:51;102069.91;;;3.65;74.18
77454;BME280;66538;53.150;18.160;2023-10-09T02:08:18;102067.38;;;3.66;73.91
77454;BME280;66538;53.150;18.160;2023-10-09T02:10:48;102062.15;;;3.68;74.36
77454;BME280;66538;53.150;18.160;2023-10-09T02:13:15;102053.61;;;3.70;74.52
77454;BME280;66538;53.150;18.160;2023-10-09T02:15:43;102058.96;;;3.72;74.16
77454;BME280;66538;53.150;18.160;2023-10-09T02:18:15;102059.48;;;3.75;74.35
77454;BME280;66538;53.150;18.160;2023-10-09T02:20:46;102059.65;;;3.76;74.23
77454;BME280;66538;53.150;18.160;2023-10-09T02:23:14;102056.48;;;3.78;74.06
77454;BME280;66538;53.150;18.160;2023-10-09T02:25:47;102053.05;;;3.80;74.23
77454;BME280;66538;53.150;18.160;2023-10-09T02:28:19;102042.65;;;3.80;74.45
77454;BME280;66538;53.150;18.160;2023-10-09T02:30:46;102038.65;;;3.82;74.22
77454;BME280;66538;53.150;18.160;2023-10-09T02:33:17;102037.54;;;3.84;74.42
77454;BME280;66538;53.150;18.160;2023-10-09T02:35:57;102036.95;;;3.87;74.43
77454;BME280;66538;53.150;18.160;2023-10-09T02:38:25;102032.34;;;3.88;74.19
77454;BME280;66538;53.150;18.160;2023-10-09T02:40:52;102030.27;;;3.89;74.54
77454;BME280;66538;53.150;18.160;2023-10-09T02:43:33;102019.91;;;3.90;74.42
77454;BME280;66538;53.150;18.160;2023-10-09T02:46:14;102012.24;;;3.91;74.20
77454;BME280;66538;53.150;18.160;2023-10-09T02:48:45;102007.25;;;3.92;74.30
77454;BME280;66538;53.150;18.160;2023-10-09T02:51:14;101997.38;;;3.93;74.17
77454;BME280;66538;53.150;18.160;2023-10-09T02:54:00;101989.77;;;3.92;74.06
77454;BME280;66538;53.150;18.160;2023-10-09T02:56:35;101985.13;;;3.92;74.31
77454;BME280;66538;53.150;18.160;2023-10-09T02:59:09;101979.25;;;3.94;74.30
77454;BME280;66538;53.150;18.160;2023-10-09T03:01:39;101978.93;;;3.97;74.50
77454;BME280;66538;53.150;18.160;2023-10-09T03:04:07;101982.11;;;3.97;74.21
77454;BME280;66538;53.150;18.160;2023-10-09T03:06:37;101980.64;;;3.99;74.38
77454;BME280;66538;53.150;18.160;2023-10-09T03:09:10;101974.82;;;3.99;74.53
77454;BME280;66538;53.150;18.160;2023-10-09T03:11:44;101982.73;;;4.03;74.50
77454;BME280;66538;53.150;18.160;2023-10-09T03:14:13;101984.13;;;4.06;74.27
77454;BME280;66538;53.150;18.160;2023-10-09T03:16:39;101983.10;;;4.10;74.03
77454;BME280;66538;53.150;18.160;2023-10-09T03:19:07;101975.44;;;4.11;74.24
77454;BME280;66538;53.150;18.160;2023-10-09T03:21:33;101965.82;;;4.12;74.56
77454;BME280;66538;53.150;18.160;2023-10-09T03:24:00;101964.02;;;4.15;74.07
77454;BME280;66538;53.150;18.160;2023-10-09T03:26:31;101954.89;;;4.16;74.47
77454;BME280;66538;53.150;18.160;2023-10-09T03:28:58;101951.89;;;4.19;74.71
77454;BME280;66538;53.150;18.160;2023-10-09T03:31:30;101950.83;;;4.20;74.34
77454;BME280;66538;53.150;18.160;2023-10-09T03:33:57;101943.30;;;4.19;74.10
77454;BME280;66538;53.150;18.160;2023-10-09T03:36:24;101937.72;;;4.20;74.14
77454;BME280;66538;53.150;18.160;2023-10-09T03:38:53;101931.92;;;4.20;74.11
77454;BME280;66538;53.150;18.160;2023-10-09T03:41:24;101921.16;;;4.23;74.55
77454;BME280;66538;53.150;18.160;2023-10-09T03:43:55;101913.44;;;4.25;74.37
77454;BME280;66538;53.150;18.160;2023-10-09T03:46:22;101915.31;;;4.28;74.20
77454;BME280;66538;53.150;18.160;2023-10-09T03:48:59;101912.92;;;4.30;74.14
77454;BME280;66538;53.150;18.160;2023-10-09T03:51:29;101904.45;;;4.31;73.88
77454;BME280;66538;53.150;18.160;2023-10-09T03:53:55;101894.36;;;4.31;74.05
77454;BME280;66538;53.150;18.160;2023-10-09T03:56:22;101892.88;;;4.31;73.85
77454;BME280;66538;53.150;18.160;2023-10-09T03:58:50;101896.94;;;4.33;73.70
77454;BME280;66538;53.150;18.160;2023-10-09T04:01:19;101894.84;;;4.37;74.37
77454;BME280;66538;53.150;18.160;2023-10-09T04:03:57;101900.83;;;4.42;74.24
77454;BME280;66538;53.150;18.160;2023-10-09T04:06:27;101894.67;;;4.45;74.56
77454;BME280;66538;53.150;18.160;2023-10-09T04:09:00;101884.55;;;4.47;74.56
77454;BME280;66538;53.150;18.160;2023-10-09T04:11:40;101886.63;;;4.50;73.95
77454;BME280;66538;53.150;18.160;2023-10-09T04:14:13;101880.56;;;4.51;73.77
77454;BME280;66538;53.150;18.160;2023-10-09T04:16:51;101871.63;;;4.51;73.84
77454;BME280;66538;53.150;18.160;2023-10-09T04:19:18;101875.50;;;4.51;74.25
77454;BME280;66538;53.150;18.160;2023-10-09T04:21:51;101871.45;;;4.48;74.02
77454;BME280;66538;53.150;18.160;2023-10-09T04:24:22;101869.41;;;4.47;73.66
77454;BME280;66538;53.150;18.160;2023-10-09T04:26:51;101868.73;;;4.46;74.27
77454;BME280;66538;53.150;18.160;2023-10-09T04:29:23;101868.86;;;4.45;74.09
77454;BME280;66538;53.150;18.160;2023-10-09T04:31:54;101867.17;;;4.45;74.35
77454;BME280;66538;53.150;18.160;2023-10-09T04:34:23;101866.02;;;4.47;74.39
77454;BME280;66538;53.150;18.160;2023-10-09T04:36:50;101855.11;;;4.49;74.18
77454;BME280;66538;53.150;18.160;2023-10-09T04:39:27;101854.27;;;4.49;73.85
77454;BME280;66538;53.150;18.160;2023-10-09T04:41:58;101852.52;;;4.52;74.48
77454;BME280;66538;53.150;18.160;2023-10-09T04:44:44;101851.23;;;4.53;74.33
77454;BME280;66538;53.150;18.160;2023-10-09T04:47:35;101850.27;;;4.54;74.36
77454;BME280;66538;53.150;18.160;2023-10-09T04:50:06;101843.70;;;4.53;74.14
77454;BME280;66538;53.150;18.160;2023-10-09T04:52:45;101840.85;;;4.53;74.10
77454;BME280;66538;53.150;18.160;2023-10-09T04:55:19;101841.30;;;4.55;74.45
77454;BME280;66538;53.150;18.160;2023-10-09T04:57:47;101838.59;;;4.58;73.96
77454;BME280;66538;53.150;18.160;2023-10-09T05:00:27;101835.55;;;4.61;74.23
77454;BME280;66538;53.150;18.160;2023-10-09T05:02:58;101841.10;;;4.63;73.73
77454;BME280;66538;53.150;18.160;2023-10-09T05:05:40;101837.45;;;4.64;73.58
77454;BME280;66538;53.150;18.160;2023-10-09T05:08:17;101833.28;;;4.67;74.07
77454;BME280;66538;53.150;18.160;2023-10-09T05:11:03;101834.86;;;4.70;74.12
77454;BME280;66538;53.150;18.160;2023-10-09T05:13:32;101831.40;;;4.73;74.46
77454;BME280;66538;53.150;18.160;2023-10-09T05:16:05;101828.38;;;4.75;74.05
77454;BME280;66538;53.150;18.160;2023-10-09T05:18:34;101828.84;;;4.75;74.90
77454;BME280;66538;53.150;18.160;2023-10-09T05:21:03;101827.76;;;4.72;74.87
77454;BME280;66538;53.150;18.160;2023-10-09T05:23:53;101823.69;;;4.71;75.36
77454;BME280;66538;53.150;18.160;2023-10-09T05:29:22;101836.06;;;4.71;75.25
77454;BME280;66538;53.150;18.160;2023-10-09T05:32:14;101833.41;;;4.70;75.24
77454;BME280;66538;53.150;18.160;2023-10-09T05:34:43;101835.48;;;4.70;75.79
77454;BME280;66538;53.150;18.160;2023-10-09T05:37:29;101832.14;;;4.71;76.03
77454;BME280;66538;53.150;18.160;2023-10-09T05:40:04;101837.33;;;4.75;76.02
77454;BME280;66538;53.150;18.160;2023-10-09T05:42:43;101829.34;;;4.79;76.47
77454;BME280;66538;53.150;18.160;2023-10-09T05:45:12;101827.20;;;4.82;76.35
77454;BME280;66538;53.150;18.160;2023-10-09T05:47:49;101830.30;;;4.87;77.18
77454;BME280;66538;53.150;18.160;2023-10-09T05:50:35;101828.75;;;4.92;77.52
77454;BME280;66538;53.150;18.160;2023-10-09T05:53:04;101824.44;;;4.95;77.38
77454;BME280;66538;53.150;18.160;2023-10-09T05:55:33;101823.62;;;5.01;77.43
77454;BME280;66538;53.150;18.160;2023-10-09T05:58:31;101824.98;;;5.08;77.26
77454;BME280;66538;53.150;18.160;2023-10-09T06:01:17;101821.39;;;5.16;77.39
77454;BME280;66538;53.150;18.160;2023-10-09T06:04:02;101815.98;;;5.24;77.29
77454;BME280;66538;53.150;18.160;2023-10-09T06:06:42;101809.69;;;5.30;77.11
77454;BME280;66538;53.150;18.160;2023-10-09T06:09:13;101816.67;;;5.37;77.29
77454;BME280;66538;53.150;18.160;2023-10-09T06:11:44;101810.33;;;5.44;77.32
77454;BME280;66538;53.150;18.160;2023-10-09T06:14:22;101812.85;;;5.50;77.14
77454;BME280;66538;53.150;18.160;2023-10-09T06:17:12;101813.77;;;5.55;77.10
77454;BME280;66538;53.150;18.160;2023-10-09T06:19:50;101817.02;;;5.62;76.88
77454;BME280;66538;53.150;18.160;2023-10-09T06:22:25;101812.09;;;5.66;76.19
77454;BME280;66538;53.150;18.160;2023-10-09T06:25:10;101810.96;;;5.69;76.14
77454;BME280;66538;53.150;18.160;2023-10-09T06:27:38;101813.06;;;5.73;76.02
77454;BME280;66538;53.150;18.160;2023-10-09T06:30:23;101818.48;;;5.79;75.69
77454;BME280;66538;53.150;18.160;2023-10-09T06:32:51;101808.99;;;5.83;75.33
77454;BME280;66538;53.150;18.160;2023-10-09T06:35:24;101806.17;;;5.89;75.06
77454;BME280;66538;53.150;18.160;2023-10-09T06:37:58;101810.55;;;5.95;75.44
77454;BME280;66538;53.150;18.160;2023-10-09T06:43:18;101802.02;;;6.07;75.69
77454;BME280;66538;53.150;18.160;2023-10-09T06:45:54;101796.63;;;6.12;75.51
77454;BME280;66538;53.150;18.160;2023-10-09T06:48:21;101791.83;;;6.15;75.30
77454;BME280;66538;53.150;18.160;2023-10-09T06:51:04;101791.08;;;6.24;75.18
77454;BME280;66538;53.150;18.160;2023-10-09T06:53:55;101786.27;;;6.28;75.27
77454;BME280;66538;53.150;18.160;2023-10-09T06:56:23;101789.70;;;6.27;74.92
77454;BME280;66538;53.150;18.160;2023-10-09T06:59:00;101792.65;;;6.28;75.44
77454;BME280;66538;53.150;18.160;2023-10-09T07:01:48;101806.00;;;6.28;75.65
77454;BME280;66538;53.150;18.160;2023-10-09T07:04:35;101811.23;;;6.28;75.79
77454;BME280;66538;53.150;18.160;2023-10-09T07:07:02;101812.79;;;6.31;75.66
77454;BME280;66538;53.150;18.160;2023-10-09T07:09:34;101814.77;;;6.36;75.91
77454;BME280;66538;53.150;18.160;2023-10-09T07:12:10;101815.20;;;6.38;75.51
77454;BME280;66538;53.150;18.160;2023-10-09T07:14:47;101811.50;;;6.41;75.51
77454;BME280;66538;53.150;18.160;2023-10-09T07:17:13;101812.77;;;6.43;75.19
77454;BME280;66538;53.150;18.160;2023-10-09T07:19:49;101817.37;;;6.46;75.08
77454;BME280;66538;53.150;18.160;2023-10-09T07:22:17;101820.24;;;6.51;74.91
77454;BME280;66538;53.150;18.160;2023-10-09T07:27:20;101808.77;;;6.70;75.38
77454;BME280;66538;53.150;18.160;2023-10-09T07:30:07;101808.95;;;6.79;75.38
77454;BME280;66538;53.150;18.160;2023-10-09T07:33:03;101804.34;;;6.93;75.54
77454;BME280;66538;53.150;18.160;2023-10-09T07:35:38;101810.54;;;7.05;75.28
77454;BME280;66538;53.150;18.160;2023-10-09T07:38:18;101817.77;;;7.13;74.83
77454;BME280;66538;53.150;18.160;2023-10-09T07:41:02;101823.58;;;7.19;74.78
77454;BME280;66538;53.150;18.160;2023-10-09T07:43:34;101831.83;;;7.28;74.75
77454;BME280;66538;53.150;18.160;2023-10-09T07:46:16;101829.70;;;7.35;74.67
77454;BME280;66538;53.150;18.160;2023-10-09T07:49:03;101824.68;;;7.47;74.37
77454;BME280;66538;53.150;18.160;2023-10-09T07:51:36;101826.63;;;7.61;74.19
77454;BME280;66538;53.150;18.160;2023-10-09T07:54:04;101830.15;;;7.71;73.66
77454;BME280;66538;53.150;18.160;2023-10-09T07:56:39;101827.11;;;7.79;73.50
77454;BME280;66538;53.150;18.160;2023-10-09T07:59:12;101823.88;;;7.87;73.13
77454;BME280;66538;53.150;18.160;2023-10-09T08:01:42;101820.60;;;7.94;73.14
77454;BME280;66538;53.150;18.160;2023-10-09T08:04:29;101816.86;;;8.01;72.73
77454;BME280;66538;53.150;18.160;2023-10-09T08:07:07;101819.13;;;8.06;72.60
77454;BME280;66538;53.150;18.160;2023-10-09T08:09:46;101819.58;;;8.11;72.32
77454;BME280;66538;53.150;18.160;2023-10-09T08:12:14;101823.53;;;8.14;72.46
77454;BME280;66538;53.150;18.160;2023-10-09T08:15:00;101818.95;;;8.17;72.03
77454;BME280;66538;53.150;18.160;2023-10-09T08:17:47;101814.11;;;8.19;72.03
77454;BME280;66538;53.150;18.160;2023-10-09T08:20:24;101807.35;;;8.22;71.71
77454;BME280;66538;53.150;18.160;2023-10-09T08:22:55;101802.59;;;8.28;71.43
77454;BME280;66538;53.150;18.160;2023-10-09T08:25:23;101794.91;;;8.30;71.51
77454;BME280;66538;53.150;18.160;2023-10-09T08:27:57;101790.89;;;8.31;71.52
77454;BME280;66538;53.150;18.160;2023-10-09T08:30:25;101791.15;;;8.33;71.42
77454;BME280;66538;53.150;18.160;2023-10-09T08:32:52;101784.91;;;8.37;71.72
77454;BME280;66538;53.150;18.160;2023-10-09T08:35:54;101785.15;;;8.46;72.05
77454;BME280;66538;53.150;18.160;2023-10-09T08:38:27;101786.34;;;8.54;71.98
77454;BME280;66538;53.150;18.160;2023-10-09T08:41:12;101788.41;;;8.58;71.58
77454;BME280;66538;53.150;18.160;2023-10-09T08:43:50;101783.20;;;8.64;71.59
77454;BME280;66538;53.150;18.160;2023-10-09T08:46:27;101776.50;;;8.63;71.31
77454;BME280;66538;53.150;18.160;2023-10-09T08:48:56;101769.83;;;8.64;71.51
77454;BME280;66538;53.150;18.160;2023-10-09T08:51:24;101769.86;;;8.67;71.10
77454;BME280;66538;53.150;18.160;2023-10-09T08:53:52;101764.89;;;8.74;70.98
77454;BME280;66538;53.150;18.160;2023-10-09T08:56:21;101763.55;;;8.80;70.77
77454;BME280;66538;53.150;18.160;2023-10-09T08:58:56;101765.04;;;8.86;70.96
77454;BME280;66538;53.150;18.160;2023-10-09T09:01:24;101757.04;;;8.92;69.77
77454;BME280;66538;53.150;18.160;2023-10-09T09:03:52;101756.56;;;8.95;69.06
77454;BME280;66538;53.150;18.160;2023-10-09T09:06:23;101755.74;;;8.99;68.52
77454;BME280;66538;53.150;18.160;2023-10-09T09:08:50;101750.58;;;9.05;68.57
77454;BME280;66538;53.150;18.160;2023-10-09T09:11:26;101749.69;;;9.13;68.60
77454;BME280;66538;53.150;18.160;2023-10-09T09:14:01;101748.13;;;9.26;68.42
77454;BME280;66538;53.150;18.160;2023-10-09T09:16:33;101742.83;;;9.38;68.01
77454;BME280;66538;53.150;18.160;2023-10-09T09:19:04;101742.27;;;9.46;67.47
77454;BME280;66538;53.150;18.160;2023-10-09T09:21:38;101740.79;;;9.49;66.93
77454;BME280;66538;53.150;18.160;2023-10-09T09:24:08;101746.20;;;9.52;67.01
77454;BME280;66538;53.150;18.160;2023-10-09T09:26:44;101748.76;;;9.55;66.59
77454;BME280;66538;53.150;18.160;2023-10-09T09:29:14;101743.73;;;9.63;66.48
77454;BME280;66538;53.150;18.160;2023-10-09T09:32:08;101738.58;;;9.75;66.42
77454;BME280;66538;53.150;18.160;2023-10-09T09:34:54;101735.12;;;9.91;65.68
77454;BME280;66538;53.150;18.160;2023-10-09T09:37:25;101737.98;;;10.03;65.68
77454;BME280;66538;53.150;18.160;2023-10-09T09:39:58;101736.53;;;10.19;65.34
77454;BME280;66538;53.150;18.160;2023-10-09T09:42:28;101727.69;;;10.28;65.00
77454;BME280;66538;53.150;18.160;2023-10-09T09:45:00;101729.77;;;10.42;64.64
77454;BME280;66538;53.150;18.160;2023-10-09T09:47:28;101730.62;;;10.59;64.15
77454;BME280;66538;53.150;18.160;2023-10-09T09:49:57;101730.21;;;10.71;63.94
77454;BME280;66538;53.150;18.160;2023-10-09T09:52:30;101727.45;;;10.81;64.03
77454;BME280;66538;53.150;18.160;2023-10-09T09:55:08;101728.59;;;10.94;63.36
77454;BME280;66538;53.150;18.160;2023-10-09T09:57:49;101731.25;;;11.07;62.90
77454;BME280;66538;53.150;18.160;2023-10-09T10:00:23;101735.71;;;11.14;62.46
77454;BME280;66538;53.150;18.160;2023-10-09T10:03:19;101729.29;;;11.23;62.62
77454;BME280;66538;53.150;18.160;2023-10-09T10:05:49;101725.09;;;11.30;62.16
77454;BME280;66538;53.150;18.160;2023-10-09T10:08:20;101730.14;;;11.40;61.95
77454;BME280;66538;53.150;18.160;2023-10-09T10:10:48;101731.98;;;11.54;61.66
77454;BME280;66538;53.150;18.160;2023-10-09T10:13:54;101729.45;;;11.62;60.91
77454;BME280;66538;53.150;18.160;2023-10-09T10:16:25;101730.96;;;11.74;60.98
77454;BME280;66538;53.150;18.160;2023-10-09T10:19:02;101724.38;;;11.82;60.52
77454;BME280;66538;53.150;18.160;2023-10-09T10:21:48;101712.98;;;11.93;60.17
77454;BME280;66538;53.150;18.160;2023-10-09T10:27:19;101705.72;;;12.27;59.55
77454;BME280;66538;53.150;18.160;2023-10-09T10:35:21;101694.06;;;12.58;58.89
77454;BME280;66538;53.150;18.160;2023-10-09T10:38:29;101697.04;;;12.67;58.32
77454;BME280;66538;53.150;18.160;2023-10-09T10:41:10;101695.96;;;12.69;57.90
77454;BME280;66538;53.150;18.160;2023-10-09T10:43:40;101694.05;;;12.69;57.74
77454;BME280;66538;53.150;18.160;2023-10-09T10:46:14;101693.69;;;12.70;57.97
77454;BME280;66538;53.150;18.160;2023-10-09T10:48:50;101696.78;;;12.69;58.12
77454;BME280;66538;53.150;18.160;2023-10-09T10:51:27;101700.33;;;12.70;58.00
77454;BME280;66538;53.150;18.160;2023-10-09T10:54:07;101688.16;;;12.73;57.65
77454;BME280;66538;53.150;18.160;2023-10-09T10:57:19;101683.80;;;12.86;57.58
77454;BME280;66538;53.150;18.160;2023-10-09T10:59:46;101678.26;;;12.88;57.15
77454;BME280;66538;53.150;18.160;2023-10-09T11:02:16;101682.35;;;12.90;57.52
77454;BME280;66538;53.150;18.160;2023-10-09T11:04:49;101681.33;;;12.91;57.27
77454;BME280;66538;53.150;18.160;2023-10-09T11:07:36;101680.06;;;12.90;57.25
77454;BME280;66538;53.150;18.160;2023-10-09T11:10:05;101678.95;;;12.91;57.23
77454;BME280;66538;53.150;18.160;2023-10-09T11:12:45;101677.45;;;12.91;56.97
77454;BME280;66538;53.150;18.160;2023-10-09T11:15:31;101669.48;;;12.95;57.10
77454;BME280;66538;53.150;18.160;2023-10-09T11:18:18;101667.59;;;12.90;56.63
77454;BME280;66538;53.150;18.160;2023-10-09T11:20:53;101662.59;;;12.92;56.94
77454;BME280;66538;53.150;18.160;2023-10-09T11:23:23;101656.08;;;13.01;56.78
77454;BME280;66538;53.150;18.160;2023-10-09T11:25:56;101655.37;;;13.07;56.26
77454;BME280;66538;53.150;18.160;2023-10-09T11:28:43;101661.06;;;13.12;55.96
77454;BME280;66538;53.150;18.160;2023-10-09T11:31:15;101659.09;;;13.16;56.17
77454;BME280;66538;53.150;18.160;2023-10-09T11:33:50;101654.89;;;13.26;56.30
77454;BME280;66538;53.150;18.160;2023-10-09T11:36:21;101657.33;;;13.42;55.69
77454;BME280;66538;53.150;18.160;2023-10-09T11:39:02;101659.77;;;13.49;55.17
77454;BME280;66538;53.150;18.160;2023-10-09T11:41:49;101654.58;;;13.48;54.76
77454;BME280;66538;53.150;18.160;2023-10-09T11:44:40;101656.20;;;13.46;54.50
77454;BME280;66538;53.150;18.160;2023-10-09T11:47:11;101659.14;;;13.46;54.49
77454;BME280;66538;53.150;18.160;2023-10-09T11:49:54;101652.16;;;13.46;54.47
77454;BME280;66538;53.150;18.160;2023-10-09T11:52:31;101650.96;;;13.55;54.28
77454;BME280;66538;53.150;18.160;2023-10-09T11:55:02;101649.27;;;13.66;53.93
77454;BME280;66538;53.150;18.160;2023-10-09T11:57:30;101648.54;;;13.74;53.93
77454;BME280;66538;53.150;18.160;2023-10-09T11:59:58;101647.70;;;13.81;53.72
77454;BME280;66538;53.150;18.160;2023-10-09T12:02:26;101650.38;;;13.96;52.96
77454;BME280;66538;53.150;18.160;2023-10-09T12:04:53;101646.95;;;14.07;52.88
77454;BME280;66538;53.150;18.160;2023-10-09T12:07:24;101646.53;;;14.24;52.92
77454;BME280;66538;53.150;18.160;2023-10-09T12:09:51;101640.38;;;14.39;51.84
77454;BME280;66538;53.150;18.160;2023-10-09T12:12:22;101638.23;;;14.54;51.71
77454;BME280;66538;53.150;18.160;2023-10-09T12:14:53;101633.09;;;14.70;50.98
77454;BME280;66538;53.150;18.160;2023-10-09T12:17:20;101631.55;;;14.90;51.26
77454;BME280;66538;53.150;18.160;2023-10-09T12:19:51;101630.71;;;15.00;50.92
77454;BME280;66538;53.150;18.160;2023-10-09T12:22:17;101624.02;;;15.11;50.92
77454;BME280;66538;53.150;18.160;2023-10-09T12:24:48;101610.21;;;15.24;50.36
77454;BME280;66538;53.150;18.160;2023-10-09T12:27:14;101605.10;;;15.35;50.03
77454;BME280;66538;53.150;18.160;2023-10-09T12:29:46;101599.95;;;15.66;49.48
77454;BME280;66538;53.150;18.160;2023-10-09T12:32:14;101593.28;;;15.97;48.96
77454;BME280;66538;53.150;18.160;2023-10-09T12:34:46;101590.64;;;16.14;48.22
77454;BME280;66538;53.150;18.160;2023-10-09T12:37:16;101584.94;;;17.25;46.74
77454;BME280;66538;53.150;18.160;2023-10-09T12:39:47;101583.91;;;18.42;44.91
77454;BME280;66538;53.150;18.160;2023-10-09T12:42:14;101573.98;;;19.40;43.36
77454;BME280;66538;53.150;18.160;2023-10-09T12:44:43;101570.87;;;19.90;40.97
77454;BME280;66538;53.150;18.160;2023-10-09T12:47:10;101563.86;;;19.20;42.53
77454;BME280;66538;53.150;18.160;2023-10-09T12:49:40;101560.63;;;18.56;42.85
77454;BME280;66538;53.150;18.160;2023-10-09T12:52:07;101557.20;;;18.34;43.26
77454;BME280;66538;53.150;18.160;2023-10-09T12:54:42;101547.29;;;19.49;42.03
77454;BME280;66538;53.150;18.160;2023-10-09T12:57:09;101544.19;;;20.30;40.29
77454;BME280;66538;53.150;18.160;2023-10-09T12:59:40;101547.22;;;19.88;40.67
77454;BME280;66538;53.150;18.160;2023-10-09T13:02:13;101546.01;;;20.53;39.11
77454;BME280;66538;53.150;18.160;2023-10-09T13:04:40;101543.16;;;20.10;39.38
77454;BME280;66538;53.150;18.160;2023-10-09T13:07:08;101540.89;;;19.24;40.90
77454;BME280;66538;53.150;18.160;2023-10-09T13:09:35;101543.69;;;18.67;41.24
77454;BME280;66538;53.150;18.160;2023-10-09T13:12:31;101541.20;;;17.96;41.93
77454;BME280;66538;53.150;18.160;2023-10-09T13:14:57;101541.71;;;17.33;42.58
77454;BME280;66538;53.150;18.160;2023-10-09T13:17:24;101541.61;;;16.77;43.31
77454;BME280;66538;53.150;18.160;2023-10-09T13:19:53;101541.02;;;16.41;43.66
77454;BME280;66538;53.150;18.160;2023-10-09T13:22:21;101537.81;;;16.23;44.20
77454;BME280;66538;53.150;18.160;2023-10-09T13:24:49;101534.97;;;16.63;43.99
77454;BME280;66538;53.150;18.160;2023-10-09T13:27:19;101535.39;;;16.24;44.36
77454;BME280;66538;53.150;18.160;2023-10-09T13:29:47;101536.41;;;16.67;44.26
77454;BME280;66538;53.150;18.160;2023-10-09T13:32:14;101527.41;;;17.11;43.41
77454;BME280;66538;53.150;18.160;2023-10-09T13:34:41;101533.02;;;17.54;42.87
77454;BME280;66538;53.150;18.160;2023-10-09T13:37:11;101527.77;;;18.94;41.05
77454;BME280;66538;53.150;18.160;2023-10-09T13:39:40;101532.98;;;20.35;38.93
77454;BME280;66538;53.150;18.160;2023-10-09T13:42:18;101528.23;;;21.17;38.50